createdAt,value
2022-08-23T00:02:26.618Z,22.23
2022-08-23T00:05:07.580Z,22.25
2022-08-23T00:07:41.183Z,22.23
2022-08-23T00:10:14.086Z,22.20
2022-08-23T00:12:42.898Z,22.24
2022-08-23T00:15:11.929Z,22.22
2022-08-23T00:17:39.146Z,22.22
2022-08-23T00:20:08.011Z,22.22
2022-08-23T00:22:34.683Z,22.20
2022-08-23T00:25:01.199Z,22.17
2022-08-23T00:27:28.531Z,22.20
2022-08-23T00:29:57.239Z,22.20
2022-08-23T00:32:28.729Z,22.21
2022-08-23T00:34:55.870Z,22.19
2022-08-23T00:37:23.182Z,22.18
2022-08-23T00:39:49.762Z,22.17
2022-08-23T00:43:01.984Z,22.21
2022-08-23T00:46:07.459Z,22.16
2022-08-23T00:48:34.727Z,22.15
2022-08-23T00:51:21.424Z,22.12
2022-08-23T00:53:52.338Z,22.14
2022-08-23T00:56:22.628Z,21.97
2022-08-23T00:58:49.580Z,22.10
2022-08-23T01:01:17.729Z,22.10
2022-08-23T01:03:49.611Z,22.10
2022-08-23T01:06:36.839Z,22.06
2022-08-23T01:09:13.259Z,22.07
2022-08-23T01:11:48.298Z,22.08
2022-08-23T01:14:21.826Z,22.07
2022-08-23T01:17:05.588Z,21.99
2022-08-23T01:19:48.685Z,22.08
2022-08-23T01:22:24.428Z,22.04
2022-08-23T01:25:07.289Z,22.02
2022-08-23T01:27:35.889Z,22.02
2022-08-23T01:30:05.158Z,21.99
2022-08-23T01:32:33.634Z,22.02
2022-08-23T01:35:00.052Z,22.00
2022-08-23T01:37:26.786Z,22.00
2022-08-23T01:39:53.346Z,21.99
2022-08-23T01:42:20.139Z,21.97
2022-08-23T01:44:46.729Z,21.95
2022-08-23T01:47:13.277Z,21.90
2022-08-23T01:49:39.801Z,21.84
2022-08-23T01:52:06.471Z,21.91
2022-08-23T01:54:32.937Z,21.90
2022-08-23T01:56:59.508Z,21.88
2022-08-23T01:59:26.471Z,21.87
2022-08-23T02:01:53.642Z,21.83
2022-08-23T02:04:22.286Z,21.84
2022-08-23T02:06:48.826Z,21.83
2022-08-23T02:09:17.853Z,21.82
2022-08-23T02:11:46.295Z,21.79
2022-08-23T02:14:16.727Z,21.80
2022-08-23T02:17:02.783Z,21.75
2022-08-23T02:19:34.463Z,21.77
2022-08-23T02:22:01.288Z,21.73
2022-08-23T02:24:28.215Z,21.69
2022-08-23T02:26:59.500Z,21.70
2022-08-23T02:29:29.848Z,21.70
2022-08-23T02:31:58.149Z,21.68
2022-08-23T02:34:25.335Z,21.66
2022-08-23T02:36:54.710Z,21.65
2022-08-23T02:39:21.286Z,21.64
2022-08-23T02:41:47.905Z,21.61
2022-08-23T02:44:14.369Z,21.56
2022-08-23T02:46:42.009Z,21.59
2022-08-23T02:49:09.217Z,21.55
2022-08-23T02:51:35.677Z,21.39
2022-08-23T02:54:02.142Z,21.53
2022-08-23T02:56:28.684Z,21.53
2022-08-23T02:58:55.142Z,21.45
2022-08-23T03:01:33.598Z,21.42
2022-08-23T03:04:01.277Z,21.48
2022-08-23T03:06:28.221Z,21.47
2022-08-23T03:08:56.805Z,21.35
2022-08-23T03:11:24.940Z,21.43
2022-08-23T03:13:52.786Z,21.42
2022-08-23T03:16:19.765Z,21.38
2022-08-23T03:18:47.768Z,21.37
2022-08-23T03:21:17.638Z,21.29
2022-08-23T03:23:45.037Z,21.33
2022-08-23T03:26:13.421Z,21.32
2022-08-23T03:28:41.182Z,21.33
2022-08-23T03:31:09.110Z,21.30
2022-08-23T03:33:36.111Z,21.29
2022-08-23T03:36:06.273Z,21.28
2022-08-23T03:38:33.980Z,21.41
2022-08-23T03:41:01.201Z,21.26
2022-08-23T03:43:28.144Z,21.21
2022-08-23T03:45:54.589Z,21.17
2022-08-23T03:48:21.087Z,21.10
2022-08-23T03:50:47.629Z,21.14
2022-08-23T03:53:14.968Z,21.11
2022-08-23T03:55:43.140Z,21.09
2022-08-23T03:58:11.082Z,21.09
2022-08-23T04:00:37.985Z,21.08
2022-08-23T04:03:04.789Z,21.05
2022-08-23T04:05:31.266Z,21.04
2022-08-23T04:07:58.067Z,21.03
2022-08-23T04:10:25.210Z,20.99
2022-08-23T04:12:53.797Z,20.98
2022-08-23T04:15:20.447Z,20.97
2022-08-23T04:17:47.062Z,20.88
2022-08-23T04:20:13.683Z,20.77
2022-08-23T04:22:40.147Z,20.88
2022-08-23T04:25:10.118Z,20.88
2022-08-23T04:27:54.774Z,20.89
2022-08-23T04:30:21.258Z,20.87
2022-08-23T04:32:48.336Z,20.79
2022-08-23T04:35:15.517Z,20.83
2022-08-23T04:37:42.606Z,20.88
2022-08-23T04:40:29.447Z,20.90
2022-08-23T04:42:56.194Z,20.89
2022-08-23T04:45:22.657Z,20.80
2022-08-23T04:47:49.221Z,20.90
2022-08-23T04:50:16.825Z,20.90
2022-08-23T04:52:43.459Z,20.79
2022-08-23T04:55:10.066Z,20.86
2022-08-23T04:57:36.494Z,20.94
2022-08-23T05:00:05.610Z,20.93
2022-08-23T05:02:32.049Z,20.92
2022-08-23T05:04:58.469Z,20.96
2022-08-23T05:07:41.645Z,20.96
2022-08-23T05:10:13.088Z,20.98
2022-08-23T05:12:40.893Z,21.00
2022-08-23T05:15:09.467Z,21.02
2022-08-23T05:17:36.680Z,21.04
2022-08-23T05:20:04.166Z,21.08
2022-08-23T05:22:33.808Z,21.12
2022-08-23T05:25:00.379Z,21.13
2022-08-23T05:27:27.018Z,21.11
2022-08-23T05:29:54.400Z,21.14
2022-08-23T05:32:21.725Z,21.20
2022-08-23T05:34:48.902Z,21.24
2022-08-23T05:37:16.005Z,21.28
2022-08-23T05:39:43.228Z,21.30
2022-08-23T05:42:14.237Z,21.23
2022-08-23T05:44:40.836Z,21.33
2022-08-23T05:47:10.314Z,21.26
2022-08-23T05:49:37.648Z,21.40
2022-08-23T05:52:05.708Z,21.45
2022-08-23T05:54:32.606Z,21.48
2022-08-23T05:56:59.146Z,21.52
2022-08-23T05:59:25.612Z,21.58
2022-08-23T06:01:52.213Z,21.65
2022-08-23T06:04:18.862Z,21.66
2022-08-23T06:06:45.337Z,21.79
2022-08-23T06:09:15.598Z,21.86
2022-08-23T06:11:44.868Z,21.96
2022-08-23T06:14:11.940Z,22.03
2022-08-23T06:16:42.190Z,22.10
2022-08-23T06:19:09.683Z,22.18
2022-08-23T06:21:37.434Z,22.24
2022-08-23T06:24:04.218Z,22.32
2022-08-23T06:26:34.011Z,22.41
2022-08-23T06:29:02.895Z,22.47
2022-08-23T06:31:45.574Z,22.52
2022-08-23T06:34:18.718Z,22.60
2022-08-23T06:36:51.394Z,22.67
2022-08-23T06:39:19.254Z,22.70
2022-08-23T06:41:48.603Z,22.74
2022-08-23T06:44:16.087Z,22.79
2022-08-23T06:46:43.148Z,22.74
2022-08-23T06:49:10.038Z,22.88
2022-08-23T06:51:40.898Z,22.83
2022-08-23T06:54:10.381Z,22.99
2022-08-23T06:56:40.480Z,23.03
2022-08-23T06:59:07.411Z,23.10
2022-08-23T07:01:49.552Z,23.21
2022-08-23T07:04:22.265Z,23.25
2022-08-23T07:06:48.907Z,23.42
2022-08-23T07:09:15.923Z,23.52
2022-08-23T07:11:42.709Z,23.47
2022-08-23T07:14:12.605Z,23.69
2022-08-23T07:16:43.289Z,23.74
2022-08-23T07:19:10.241Z,23.77
2022-08-23T07:21:37.186Z,23.79
2022-08-23T07:24:04.783Z,23.81
2022-08-23T07:26:31.573Z,23.90
2022-08-23T07:28:58.239Z,23.90
2022-08-23T07:31:28.393Z,23.99
2022-08-23T07:33:58.910Z,24.01
2022-08-23T07:36:28.002Z,24.03
2022-08-23T07:38:55.776Z,24.03
2022-08-23T07:41:31.080Z,24.08
2022-08-23T07:44:02.242Z,24.03
2022-08-23T07:46:31.934Z,24.10
2022-08-23T07:49:00.483Z,24.18
2022-08-23T07:51:29.210Z,24.28
2022-08-23T07:53:55.787Z,24.41
2022-08-23T07:56:22.506Z,24.40
2022-08-23T07:58:50.071Z,24.67
2022-08-23T08:01:28.138Z,24.80
2022-08-23T08:03:57.972Z,24.86
2022-08-23T08:06:28.222Z,24.94
2022-08-23T08:08:55.704Z,24.96
2022-08-23T08:11:24.371Z,24.97
2022-08-23T08:13:51.978Z,25.00
2022-08-23T08:16:31.166Z,25.03
2022-08-23T08:18:59.943Z,25.03
2022-08-23T08:21:28.020Z,25.07
2022-08-23T08:23:57.589Z,25.14
2022-08-23T08:26:25.108Z,25.17
2022-08-23T08:28:52.435Z,25.23
2022-08-23T08:31:19.279Z,25.31
2022-08-23T08:33:46.046Z,25.38
2022-08-23T08:36:53.669Z,25.61
2022-08-23T08:39:24.162Z,25.55
2022-08-23T08:42:07.185Z,25.71
2022-08-23T08:44:46.471Z,25.76
2022-08-23T08:47:34.347Z,25.78
2022-08-23T08:50:03.902Z,25.80
2022-08-23T08:52:36.807Z,25.87
2022-08-23T08:55:18.055Z,25.95
2022-08-23T08:57:47.292Z,25.95
2022-08-23T09:00:17.521Z,25.97
2022-08-23T09:02:45.196Z,25.96
2022-08-23T09:05:16.822Z,26.06
2022-08-23T09:08:02.197Z,26.23
2022-08-23T09:11:12.431Z,26.29
2022-08-23T09:13:57.142Z,26.49
2022-08-23T09:17:02.395Z,26.60
2022-08-23T09:19:33.372Z,26.73
2022-08-23T09:22:06.853Z,26.87
2022-08-23T09:24:33.375Z,27.05
2022-08-23T09:26:59.824Z,27.28
2022-08-23T09:29:32.044Z,27.57
2022-08-23T09:32:04.330Z,27.88
2022-08-23T09:34:30.729Z,28.22
2022-08-23T09:37:17.949Z,28.59
2022-08-23T09:40:07.751Z,28.71
2022-08-23T09:42:37.729Z,29.00
2022-08-23T09:45:24.072Z,29.05
2022-08-23T09:47:50.698Z,29.36
2022-08-23T09:50:29.323Z,29.63
2022-08-23T09:53:04.447Z,29.92
2022-08-23T09:55:38.851Z,30.18
2022-08-23T09:58:23.499Z,30.40
2022-08-23T10:01:08.144Z,30.76
2022-08-23T10:03:34.710Z,30.88
2022-08-23T10:06:02.129Z,31.11
2022-08-23T10:08:33.196Z,31.32
2022-08-23T10:11:16.473Z,31.58
2022-08-23T10:13:44.680Z,31.67
2022-08-23T10:16:46.171Z,31.94
2022-08-23T10:19:23.021Z,31.99
2022-08-23T10:21:57.506Z,32.06
2022-08-23T10:24:33.932Z,32.15
2022-08-23T10:27:39.713Z,32.15
2022-08-23T10:30:13.051Z,32.38
2022-08-23T10:32:46.029Z,32.49
2022-08-23T10:35:18.538Z,32.62
2022-08-23T10:38:19.582Z,32.69
2022-08-23T10:40:52.628Z,32.73
2022-08-23T10:43:45.889Z,32.57
2022-08-23T10:46:13.129Z,32.68
2022-08-23T10:48:53.811Z,32.78
2022-08-23T10:51:43.667Z,32.83
2022-08-23T10:54:16.182Z,32.88
2022-08-23T10:56:48.871Z,32.96
2022-08-23T10:59:23.876Z,32.99
2022-08-23T11:02:42.563Z,33.25
2022-08-23T11:05:30.034Z,33.33
2022-08-23T11:08:01.567Z,33.32
2022-08-23T11:10:34.884Z,33.30
2022-08-23T11:13:27.136Z,33.32
2022-08-23T11:16:06.919Z,33.26
2022-08-23T11:18:44.046Z,33.31
2022-08-23T11:21:10.448Z,33.25
2022-08-23T11:23:46.017Z,33.22
2022-08-23T11:26:53.195Z,33.36
2022-08-23T11:29:23.314Z,33.44
2022-08-23T11:32:02.023Z,33.64
2022-08-23T11:34:34.882Z,33.77
2022-08-23T11:37:19.615Z,33.87
2022-08-23T11:39:58.279Z,33.98
2022-08-23T11:42:43.946Z,33.98
2022-08-23T11:45:30.705Z,34.15
2022-08-23T11:48:12.067Z,34.40
2022-08-23T11:50:57.789Z,34.44
2022-08-23T11:53:36.865Z,34.64
2022-08-23T11:56:32.915Z,34.60
2022-08-23T11:59:08.821Z,34.64
2022-08-23T12:01:38.848Z,34.64
2022-08-23T12:04:11.613Z,34.66
2022-08-23T12:06:51.175Z,34.61
2022-08-23T12:09:20.933Z,34.57
2022-08-23T12:11:56.545Z,34.50
2022-08-23T12:14:31.988Z,34.46
2022-08-23T12:17:20.306Z,34.52
2022-08-23T12:19:57.653Z,34.33
2022-08-23T12:22:30.343Z,34.17
2022-08-23T12:25:03.983Z,34.32
2022-08-23T12:27:42.792Z,34.33
2022-08-23T12:30:24.807Z,34.57
2022-08-23T12:33:03.969Z,34.71
2022-08-23T12:36:05.160Z,34.70
2022-08-23T12:39:02.121Z,34.70
2022-08-23T12:41:33.256Z,34.72
2022-08-23T12:44:09.757Z,34.71
2022-08-23T12:46:42.296Z,34.74
2022-08-23T12:49:21.807Z,34.68
2022-08-23T12:51:50.004Z,34.74
2022-08-23T12:54:20.835Z,34.66
2022-08-23T12:56:50.059Z,34.81
2022-08-23T12:59:39.731Z,35.00
2022-08-23T13:02:12.232Z,34.87
2022-08-23T13:04:40.591Z,34.92
2022-08-23T13:07:12.247Z,34.83
2022-08-23T13:09:42.373Z,34.75
2022-08-23T13:12:12.778Z,34.74
2022-08-23T13:14:48.422Z,34.84
2022-08-23T13:17:26.844Z,34.84
2022-08-23T13:20:15.291Z,34.77
2022-08-23T13:23:03.863Z,34.95
2022-08-23T13:25:34.305Z,34.96
2022-08-23T13:28:26.302Z,35.03
2022-08-23T13:31:05.076Z,35.20
2022-08-23T13:33:31.811Z,35.15
2022-08-23T13:36:13.442Z,35.32
2022-08-23T13:38:41.851Z,35.33
2022-08-23T13:41:13.713Z,35.35
2022-08-23T13:43:43.240Z,35.31
2022-08-23T13:46:22.645Z,35.39
2022-08-23T13:48:57.809Z,35.28
2022-08-23T13:51:31.550Z,35.27
2022-08-23T13:54:03.529Z,35.29
2022-08-23T13:56:34.175Z,35.30
2022-08-23T13:59:07.657Z,35.19
2022-08-23T14:01:34.737Z,35.35
2022-08-23T14:04:01.223Z,35.29
2022-08-23T14:06:27.732Z,35.40
2022-08-23T14:08:54.203Z,35.20
2022-08-23T14:11:20.903Z,35.29
2022-08-23T14:13:48.979Z,35.36
2022-08-23T14:16:40.720Z,35.36
2022-08-23T14:19:54.381Z,35.39
2022-08-23T14:21:56.463Z,35.35
2022-08-23T14:24:22.889Z,35.35
2022-08-23T14:26:52.323Z,35.34
2022-08-23T14:29:23.912Z,35.37
2022-08-23T14:31:51.959Z,35.31
2022-08-23T14:34:18.749Z,35.28
2022-08-23T14:39:31.741Z,35.14
2022-08-23T14:41:58.591Z,35.16
2022-08-23T14:44:27.926Z,35.03
2022-08-23T14:46:56.834Z,35.09
2022-08-23T14:49:23.311Z,35.05
2022-08-23T14:51:50.546Z,35.15
2022-08-23T14:54:23.791Z,35.27
2022-08-23T14:56:50.718Z,35.23
2022-08-23T14:59:17.230Z,35.28
2022-08-23T15:01:44.201Z,35.25
2022-08-23T15:04:11.664Z,35.21
2022-08-23T15:06:54.908Z,35.28
2022-08-23T15:09:27.296Z,35.39
2022-08-23T15:14:41.407Z,35.45
2022-08-23T15:17:07.860Z,35.45
2022-08-23T15:19:34.311Z,35.28
2022-08-23T15:22:06.496Z,35.40
2022-08-23T15:24:45.363Z,35.49
2022-08-23T15:27:12.449Z,35.40
2022-08-23T15:29:39.053Z,35.27
2022-08-23T15:32:05.666Z,35.13
2022-08-23T15:34:35.427Z,35.03
2022-08-23T15:37:02.017Z,34.93
2022-08-23T15:39:28.777Z,34.83
2022-08-23T15:41:55.263Z,34.73
2022-08-23T15:44:21.707Z,34.65
2022-08-23T15:46:48.598Z,34.74
2022-08-23T15:49:18.205Z,34.70
2022-08-23T15:51:45.640Z,34.59
2022-08-23T15:54:12.248Z,34.63
2022-08-23T15:56:44.505Z,34.63
2022-08-23T15:59:13.595Z,34.55
2022-08-23T16:01:40.557Z,34.55
2022-08-23T16:04:07.120Z,34.51
2022-08-23T16:06:36.632Z,34.55
2022-08-23T16:09:05.378Z,34.58
2022-08-23T16:11:31.891Z,34.57
2022-08-23T16:13:59.109Z,34.63
2022-08-23T16:16:30.242Z,34.67
2022-08-23T16:18:58.287Z,34.67
2022-08-23T16:21:27.331Z,34.63
2022-08-23T16:23:55.048Z,34.68
2022-08-23T16:26:34.506Z,34.56
2022-08-23T16:29:03.731Z,34.40
2022-08-23T16:31:39.098Z,34.34
2022-08-23T16:34:08.297Z,34.22
2022-08-23T16:36:34.912Z,34.03
2022-08-23T16:39:01.409Z,33.97
2022-08-23T16:41:28.062Z,33.90
2022-08-23T16:43:54.492Z,33.84
2022-08-23T16:46:22.146Z,33.81
2022-08-23T16:48:49.002Z,33.77
2022-08-23T16:51:16.771Z,33.73
2022-08-23T16:53:43.670Z,33.67
2022-08-23T16:56:21.209Z,33.62
2022-08-23T16:58:47.646Z,33.58
2022-08-23T17:01:19.692Z,33.50
2022-08-23T17:03:46.541Z,33.48
2022-08-23T17:06:13.453Z,33.27
2022-08-23T17:08:40.005Z,33.39
2022-08-23T17:11:11.102Z,33.14
2022-08-23T17:13:37.528Z,33.37
2022-08-23T17:16:04.185Z,33.34
2022-08-23T17:18:31.294Z,33.26
2022-08-23T17:20:58.041Z,33.14
2022-08-23T17:23:24.451Z,33.05
2022-08-23T17:25:50.875Z,32.95
2022-08-23T17:28:18.106Z,32.78
2022-08-23T17:30:44.700Z,32.66
2022-08-23T17:33:11.287Z,32.53
2022-08-23T17:35:39.533Z,32.39
2022-08-23T17:38:06.537Z,32.13
2022-08-23T17:40:39.858Z,32.11
2022-08-23T17:43:07.377Z,31.91
2022-08-23T17:45:49.205Z,31.82
2022-08-23T17:48:17.559Z,31.61
2022-08-23T17:50:44.875Z,31.46
2022-08-23T17:53:14.279Z,31.37
2022-08-23T17:55:41.608Z,31.23
2022-08-23T17:58:10.183Z,31.04
2022-08-23T18:00:39.022Z,30.76
2022-08-23T18:03:06.263Z,30.60
2022-08-23T18:05:34.148Z,30.36
2022-08-23T18:08:01.178Z,30.07
2022-08-23T18:10:29.993Z,29.82
2022-08-23T18:12:57.961Z,29.57
2022-08-23T18:15:24.567Z,29.20
2022-08-23T18:17:51.749Z,29.03
2022-08-23T18:20:23.170Z,28.79
2022-08-23T18:22:49.716Z,28.54
2022-08-23T18:25:17.050Z,28.27
2022-08-23T18:28:03.025Z,28.06
2022-08-23T18:30:29.840Z,27.70
2022-08-23T18:32:57.650Z,27.56
2022-08-23T18:35:26.015Z,27.39
2022-08-23T18:37:53.156Z,27.09
2022-08-23T18:40:19.853Z,26.97
2022-08-23T18:42:46.458Z,26.76
2022-08-23T18:45:14.140Z,26.59
2022-08-23T18:47:40.721Z,26.43
2022-08-23T18:50:09.562Z,26.20
2022-08-23T18:52:36.261Z,25.86
2022-08-23T18:55:03.194Z,25.94
2022-08-23T18:57:29.761Z,25.75
2022-08-23T18:59:56.294Z,25.37
2022-08-23T19:02:24.319Z,25.47
2022-08-23T19:04:53.072Z,25.13
2022-08-23T19:07:19.770Z,25.19
2022-08-23T19:09:46.211Z,25.01
2022-08-23T19:12:12.733Z,24.95
2022-08-23T19:14:39.154Z,24.83
2022-08-23T19:17:08.002Z,24.72
2022-08-23T19:19:35.082Z,24.63
2022-08-23T19:22:01.546Z,24.54
2022-08-23T19:24:28.644Z,24.44
2022-08-23T19:26:55.739Z,24.37
2022-08-23T19:29:22.241Z,24.29
2022-08-23T19:31:50.162Z,24.11
2022-08-23T19:34:19.834Z,24.15
2022-08-23T19:36:51.287Z,24.06
2022-08-23T19:39:26.004Z,24.04
2022-08-23T19:41:53.111Z,23.86
2022-08-23T19:44:20.041Z,23.93
2022-08-23T19:46:46.587Z,23.88
2022-08-23T19:49:14.839Z,23.83
2022-08-23T19:51:42.108Z,23.72
2022-08-23T19:54:11.572Z,23.71
2022-08-23T19:56:44.686Z,23.68
2022-08-23T19:59:15.845Z,23.60
2022-08-23T20:01:42.544Z,23.57
2022-08-23T20:04:09.179Z,23.52
2022-08-23T20:06:35.725Z,23.49
2022-08-23T20:09:02.376Z,23.45
2022-08-23T20:11:29.535Z,23.37
2022-08-23T20:13:56.732Z,23.41
2022-08-23T20:16:23.937Z,23.39
2022-08-23T20:18:51.457Z,23.36
2022-08-23T20:21:17.963Z,23.35
2022-08-23T20:24:03.262Z,23.32
2022-08-23T20:26:40.541Z,23.33
2022-08-23T20:29:10.206Z,23.29
2022-08-23T20:31:46.026Z,23.27
2022-08-23T20:34:12.632Z,23.20
2022-08-23T20:36:39.090Z,23.20
2022-08-23T20:39:05.745Z,23.17
2022-08-23T20:41:34.432Z,23.15
2022-08-23T20:44:02.158Z,23.11
2022-08-23T20:46:28.815Z,23.11
2022-08-23T20:48:57.631Z,23.07
2022-08-23T20:51:25.358Z,23.03
2022-08-23T20:53:51.914Z,23.00
2022-08-23T20:56:20.278Z,22.96
2022-08-23T20:58:47.447Z,22.92
2022-08-23T21:01:16.008Z,22.84
2022-08-23T21:03:43.150Z,22.86
2022-08-23T21:06:29.413Z,22.83
2022-08-23T21:08:58.957Z,22.82
2022-08-23T21:11:28.212Z,22.76
2022-08-23T21:13:56.130Z,22.73
2022-08-23T21:16:23.556Z,22.69
2022-08-23T21:18:50.292Z,22.68
2022-08-23T21:23:48.163Z,22.66
2022-08-23T21:26:14.777Z,22.63
2022-08-23T21:28:41.827Z,22.62
2022-08-23T21:31:11.841Z,22.63
2022-08-23T21:33:40.300Z,22.72
2022-08-23T21:36:07.969Z,22.57
2022-08-23T21:38:34.605Z,22.56
2022-08-23T21:41:05.051Z,22.53
2022-08-23T21:43:33.261Z,22.51
2022-08-23T21:46:00.049Z,22.49
2022-08-23T21:48:26.891Z,22.49
2022-08-23T21:50:53.361Z,22.44
2022-08-23T21:53:20.152Z,22.39
2022-08-23T21:55:46.634Z,22.45
2022-08-23T21:58:13.624Z,22.45
2022-08-23T22:00:41.410Z,22.45
2022-08-23T22:03:09.000Z,22.43
2022-08-23T22:05:42.909Z,22.42
2022-08-23T22:08:09.617Z,22.41
2022-08-23T22:10:48.183Z,22.38
2022-08-23T22:13:25.046Z,22.38
2022-08-23T22:15:51.546Z,22.37
2022-08-23T22:18:18.339Z,22.36
2022-08-23T22:20:44.879Z,22.27
2022-08-23T22:23:11.549Z,22.30
2022-08-23T22:25:38.191Z,22.28
2022-08-23T22:28:04.760Z,22.27
2022-08-23T22:30:32.161Z,22.25
2022-08-23T22:32:58.583Z,22.23
2022-08-23T22:35:25.235Z,22.19
2022-08-23T22:38:12.356Z,22.16
2022-08-23T22:40:39.406Z,22.16
2022-08-23T22:43:05.887Z,22.07
2022-08-23T22:45:32.303Z,22.03
2022-08-23T22:47:58.977Z,22.00
2022-08-23T22:50:25.595Z,21.98
2022-08-23T22:52:52.057Z,21.94
2022-08-23T22:55:18.555Z,21.84
2022-08-23T22:57:45.056Z,21.88
2022-08-23T23:00:11.979Z,21.85
2022-08-23T23:02:38.980Z,21.73
2022-08-23T23:05:07.946Z,21.70
2022-08-23T23:07:53.273Z,21.74
2022-08-23T23:10:19.754Z,21.69
2022-08-23T23:12:46.359Z,21.66
2022-08-23T23:15:13.061Z,21.64
2022-08-23T23:17:39.691Z,21.60
2022-08-23T23:20:25.306Z,21.54
2022-08-23T23:22:51.890Z,21.56
2022-08-23T23:25:18.923Z,21.54
2022-08-23T23:27:45.851Z,21.45
2022-08-23T23:30:12.897Z,21.55
2022-08-23T23:32:39.402Z,21.55
2022-08-23T23:35:08.637Z,21.55
2022-08-23T23:37:35.468Z,21.58
2022-08-23T23:40:02.121Z,21.58
2022-08-23T23:42:28.606Z,21.61
2022-08-23T23:44:55.089Z,21.62
2022-08-23T23:47:21.509Z,21.65
2022-08-23T23:49:50.533Z,21.61
2022-08-23T23:52:17.048Z,21.69
2022-08-23T23:54:43.740Z,21.70
2022-08-23T23:57:10.149Z,21.75
2022-08-23T23:59:36.877Z,21.75
